createdAt,value
2018-06-13T00:01:14.322Z,3.20
2018-06-13T00:03:43.106Z,2.87
2018-06-13T00:06:12.935Z,2.80
2018-06-13T00:08:41.740Z,3.33
2018-06-13T00:11:16.411Z,2.57
2018-06-13T00:13:45.164Z,3.80
2018-06-13T00:16:15.945Z,2.97
2018-06-13T00:21:40.454Z,2.77
2018-06-13T00:24:09.162Z,2.97
2018-06-13T00:26:37.928Z,2.20
2018-06-13T00:29:06.728Z,2.63
2018-06-13T00:31:35.534Z,2.50
2018-06-13T00:34:04.420Z,2.77
2018-06-13T00:36:33.469Z,1.97
2018-06-13T00:39:02.151Z,2.73
2018-06-13T00:41:31.351Z,2.50
2018-06-13T00:44:00.200Z,3.00
2018-06-13T00:46:32.747Z,2.50
2018-06-13T00:49:01.469Z,2.53
2018-06-13T00:51:30.225Z,3.03
2018-06-13T00:53:58.953Z,2.37
2018-06-13T00:56:30.780Z,2.43
2018-06-13T00:58:59.613Z,2.80
2018-06-13T01:01:28.314Z,2.00
2018-06-13T01:03:57.113Z,2.63
2018-06-13T01:06:37.132Z,2.57
2018-06-13T01:09:07.765Z,2.10
2018-06-13T01:11:36.526Z,1.80
2018-06-13T01:14:12.969Z,2.27
2018-06-13T01:16:53.944Z,1.87
2018-06-13T01:19:22.673Z,2.10
2018-06-13T01:22:02.420Z,2.23
2018-06-13T01:24:31.175Z,2.10
2018-06-13T01:27:00.969Z,2.20
2018-06-13T01:29:29.665Z,2.40
2018-06-13T01:31:58.494Z,3.60
2018-06-13T01:34:44.568Z,2.10
2018-06-13T01:37:13.389Z,3.03
2018-06-13T01:39:42.060Z,2.73
2018-06-13T01:42:12.834Z,2.33
2018-06-13T01:44:43.601Z,2.20
2018-06-13T01:47:15.752Z,3.37
2018-06-13T01:49:44.503Z,2.17
2018-06-13T01:52:31.383Z,2.20
2018-06-13T01:55:02.329Z,2.50
2018-06-13T01:57:31.435Z,2.30
2018-06-13T02:00:00.206Z,2.80
2018-06-13T02:02:29.003Z,2.63
2018-06-13T02:05:03.185Z,2.70
2018-06-13T02:07:31.934Z,2.80
2018-06-13T02:10:00.680Z,2.43
2018-06-13T02:12:32.066Z,2.70
2018-06-13T02:15:00.878Z,2.83
2018-06-13T02:17:29.634Z,3.30
2018-06-13T02:19:58.427Z,2.57
2018-06-13T02:22:29.386Z,3.00
2018-06-13T02:24:58.200Z,2.73
2018-06-13T02:27:27.288Z,2.67
2018-06-13T02:29:57.044Z,2.83
2018-06-13T02:32:25.859Z,2.53
2018-06-13T02:34:55.627Z,2.80
2018-06-13T02:37:24.441Z,2.37
2018-06-13T02:39:53.275Z,3.80
2018-06-13T02:42:22.043Z,3.07
2018-06-13T02:44:53.591Z,2.97
2018-06-13T02:47:22.451Z,2.90
2018-06-13T02:49:51.243Z,2.30
2018-06-13T02:52:20.010Z,2.60
2018-06-13T02:54:48.833Z,2.57
2018-06-13T02:57:17.955Z,2.70
2018-06-13T02:59:47.758Z,2.60
2018-06-13T03:02:16.577Z,3.10
2018-06-13T03:04:45.364Z,2.83
2018-06-13T03:07:15.162Z,2.53
2018-06-13T03:09:44.888Z,3.03
2018-06-13T03:12:13.683Z,2.70
2018-06-13T03:14:42.491Z,2.50
2018-06-13T03:17:11.271Z,2.50
2018-06-13T03:19:40.115Z,2.43
2018-06-13T03:22:08.833Z,3.03
2018-06-13T03:24:37.603Z,2.57
2018-06-13T03:27:07.520Z,2.73
2018-06-13T03:29:44.198Z,2.73
2018-06-13T03:32:12.928Z,2.20
2018-06-13T03:34:42.108Z,1.80
2018-06-13T03:37:10.933Z,2.70
2018-06-13T03:39:39.728Z,4.00
2018-06-13T03:42:08.456Z,2.53
2018-06-13T03:44:37.298Z,2.00
2018-06-13T03:47:08.103Z,2.37
2018-06-13T03:49:37.890Z,1.90
2018-06-13T03:52:16.714Z,1.70
2018-06-13T03:54:49.011Z,2.10
2018-06-13T03:57:18.852Z,2.10
2018-06-13T03:59:49.628Z,2.10
2018-06-13T04:02:18.330Z,3.07
2018-06-13T04:04:47.080Z,1.77
2018-06-13T04:07:17.934Z,1.93
2018-06-13T04:09:46.625Z,1.77
2018-06-13T04:12:15.390Z,1.70
2018-06-13T04:14:44.129Z,1.60
2018-06-13T04:17:12.934Z,1.37
2018-06-13T04:19:54.361Z,1.60
2018-06-13T04:22:23.141Z,1.57
2018-06-13T04:24:51.924Z,1.73
2018-06-13T04:30:19.831Z,1.70
2018-06-13T04:32:48.591Z,1.80
2018-06-13T04:35:17.366Z,2.33
2018-06-13T04:37:48.293Z,2.00
2018-06-13T04:40:18.396Z,1.43
2018-06-13T04:42:47.255Z,1.30
2018-06-13T04:45:29.573Z,1.80
2018-06-13T04:47:58.375Z,1.57
2018-06-13T04:50:28.177Z,1.40
2018-06-13T04:53:00.154Z,1.60
2018-06-13T04:55:28.957Z,1.97
2018-06-13T04:57:58.754Z,1.47
2018-06-13T05:00:29.534Z,1.60
2018-06-13T05:02:58.305Z,2.00
2018-06-13T05:05:32.943Z,1.53
2018-06-13T05:08:01.768Z,1.53
2018-06-13T05:10:30.544Z,1.20
2018-06-13T05:12:59.341Z,1.40
2018-06-13T05:15:28.167Z,2.23
2018-06-13T05:17:56.950Z,1.70
2018-06-13T05:20:25.744Z,1.33
2018-06-13T05:22:58.732Z,1.73
2018-06-13T05:25:27.888Z,1.60
2018-06-13T05:27:56.671Z,2.33
2018-06-13T05:30:26.517Z,1.43
2018-06-13T05:32:57.347Z,2.77
2018-06-13T05:35:27.375Z,1.50
2018-06-13T05:38:00.334Z,2.00
2018-06-13T05:40:29.744Z,1.50
2018-06-13T05:43:17.060Z,1.00
2018-06-13T05:45:47.717Z,1.60
2018-06-13T05:48:22.392Z,1.40
2018-06-13T05:50:55.961Z,1.93
2018-06-13T05:53:24.764Z,1.90
2018-06-13T05:55:54.528Z,1.37
2018-06-13T05:58:23.360Z,1.90
2018-06-13T06:00:52.177Z,2.27
2018-06-13T06:03:21.271Z,1.70
2018-06-13T06:05:51.043Z,1.30
2018-06-13T06:08:19.860Z,1.17
2018-06-13T06:11:00.857Z,1.90
2018-06-13T06:13:31.796Z,1.80
2018-06-13T06:16:00.628Z,1.50
2018-06-13T06:18:29.377Z,1.40
2018-06-13T06:20:58.345Z,1.07
2018-06-13T06:23:27.450Z,1.10
2018-06-13T06:25:56.218Z,1.70
2018-06-13T06:28:27.006Z,1.13
2018-06-13T06:30:55.792Z,1.23
2018-06-13T06:33:26.711Z,1.23
2018-06-13T06:35:55.485Z,1.30
2018-06-13T06:38:27.864Z,1.47
2018-06-13T06:40:57.447Z,1.43
2018-06-13T06:43:27.172Z,1.70
2018-06-13T06:46:15.980Z,1.30
2018-06-13T06:48:48.498Z,1.47
2018-06-13T06:51:18.397Z,1.80
2018-06-13T06:53:53.783Z,1.73
2018-06-13T06:56:27.200Z,1.40
2018-06-13T06:58:55.988Z,1.53
2018-06-13T07:01:24.769Z,1.93
2018-06-13T07:03:53.619Z,1.60
2018-06-13T07:06:27.001Z,1.33
2018-06-13T07:08:55.877Z,1.37
2018-06-13T07:11:24.740Z,1.20
2018-06-13T07:13:55.121Z,1.33
2018-06-13T07:16:25.014Z,1.50
2018-06-13T07:18:53.800Z,1.10
2018-06-13T07:21:27.225Z,1.20
2018-06-13T07:24:02.247Z,1.50
2018-06-13T07:26:31.379Z,1.20
2018-06-13T07:29:00.310Z,1.50
2018-06-13T07:31:29.134Z,1.50
2018-06-13T07:33:58.105Z,1.27
2018-06-13T07:36:27.332Z,1.20
2018-06-13T07:38:56.255Z,1.40
2018-06-13T07:41:32.393Z,1.50
2018-06-13T07:44:14.532Z,1.10
2018-06-13T07:46:44.082Z,1.30
2018-06-13T07:49:15.284Z,1.00
2018-06-13T07:51:43.998Z,1.30
2018-06-13T07:54:12.882Z,1.10
2018-06-13T07:56:42.503Z,1.40
2018-06-13T07:59:12.523Z,1.20
2018-06-13T08:01:41.268Z,1.20
2018-06-13T08:04:18.010Z,1.30
2018-06-13T08:06:46.733Z,1.37
2018-06-13T08:09:15.560Z,0.93
2018-06-13T08:11:44.554Z,1.33
2018-06-13T08:14:15.434Z,1.10
2018-06-13T08:16:44.122Z,1.30
2018-06-13T08:19:12.893Z,1.00
2018-06-13T08:21:45.677Z,1.00
2018-06-13T08:24:15.531Z,1.13
2018-06-13T08:26:46.487Z,1.27
2018-06-13T08:29:15.336Z,1.20
2018-06-13T08:31:45.579Z,1.33
2018-06-13T08:34:14.762Z,1.33
2018-06-13T08:36:43.566Z,0.80
2018-06-13T08:39:12.355Z,1.47
2018-06-13T08:41:41.134Z,0.80
2018-06-13T08:44:09.964Z,1.53
2018-06-13T08:46:38.691Z,1.10
2018-06-13T08:49:07.796Z,1.20
2018-06-13T08:51:36.643Z,1.20
2018-06-13T08:54:11.722Z,1.33
2018-06-13T08:56:40.495Z,1.30
2018-06-13T08:59:19.276Z,1.73
2018-06-13T09:01:53.695Z,1.10
2018-06-13T09:04:22.438Z,2.47
2018-06-13T09:06:51.238Z,2.33
2018-06-13T09:09:20.061Z,1.17
2018-06-13T09:11:49.714Z,1.07
2018-06-13T09:14:19.296Z,1.30
2018-06-13T09:16:48.090Z,1.27
2018-06-13T09:19:18.891Z,2.50
2018-06-13T09:21:47.643Z,1.30
2018-06-13T09:24:16.411Z,1.23
2018-06-13T09:26:45.238Z,1.20
2018-06-13T09:29:14.021Z,1.10
2018-06-13T09:31:43.785Z,1.63
2018-06-13T09:34:12.568Z,1.30
2018-06-13T09:36:44.997Z,1.07
2018-06-13T09:39:13.728Z,1.23
2018-06-13T09:41:48.098Z,1.23
2018-06-13T09:44:16.879Z,0.90
2018-06-13T09:46:48.920Z,1.33
2018-06-13T09:49:17.832Z,1.67
2018-06-13T09:51:48.646Z,1.20
2018-06-13T09:54:17.964Z,1.00
2018-06-13T09:56:46.779Z,1.47
2018-06-13T09:59:19.096Z,1.20
2018-06-13T10:02:03.578Z,1.77
2018-06-13T10:04:32.446Z,1.33
2018-06-13T10:07:02.484Z,1.37
2018-06-13T10:09:31.307Z,0.93
2018-06-13T10:12:01.628Z,1.33
2018-06-13T10:14:30.591Z,1.20
2018-06-13T10:16:59.586Z,1.17
2018-06-13T10:19:28.670Z,0.90
2018-06-13T10:21:57.581Z,1.10
2018-06-13T10:24:26.423Z,1.73
2018-06-13T10:26:55.781Z,1.40
2018-06-13T10:29:24.711Z,2.00
2018-06-13T10:31:53.491Z,1.27
2018-06-13T10:34:22.322Z,1.13
2018-06-13T10:36:51.078Z,1.43
2018-06-13T10:39:20.327Z,1.47
2018-06-13T10:41:51.261Z,1.30
2018-06-13T10:44:20.115Z,1.77
2018-06-13T10:46:48.982Z,1.77
2018-06-13T10:49:17.939Z,1.23
2018-06-13T10:51:46.851Z,1.60
2018-06-13T10:54:18.856Z,1.67
2018-06-13T10:56:51.698Z,1.60
2018-06-13T10:59:20.476Z,1.70
2018-06-13T11:01:49.455Z,1.27
2018-06-13T11:04:19.351Z,1.47
2018-06-13T11:06:52.061Z,1.40
2018-06-13T11:09:20.978Z,1.60
2018-06-13T11:11:50.028Z,1.30
2018-06-13T11:14:23.670Z,1.67
2018-06-13T11:16:52.537Z,1.40
2018-06-13T11:19:21.415Z,2.03
2018-06-13T11:21:50.675Z,1.70
2018-06-13T11:24:31.682Z,2.20
2018-06-13T11:27:00.920Z,1.60
2018-06-13T11:29:29.640Z,1.77
2018-06-13T11:31:58.425Z,1.90
2018-06-13T11:34:27.250Z,1.90
2018-06-13T11:36:57.260Z,1.87
2018-06-13T11:39:25.957Z,2.00
2018-06-13T11:41:55.749Z,2.00
2018-06-13T11:44:24.646Z,2.13
2018-06-13T11:47:00.263Z,1.77
2018-06-13T11:49:28.972Z,2.03
2018-06-13T11:51:57.847Z,2.00
2018-06-13T11:54:26.408Z,2.47
2018-06-13T11:57:00.266Z,2.50
2018-06-13T11:59:31.095Z,2.03
2018-06-13T12:01:59.945Z,2.17
2018-06-13T12:04:28.785Z,2.10
2018-06-13T12:06:57.632Z,1.63
2018-06-13T12:09:26.413Z,2.13
2018-06-13T12:11:55.240Z,1.60
2018-06-13T12:14:24.036Z,2.80
2018-06-13T12:16:53.009Z,2.70
2018-06-13T12:19:27.883Z,1.93
2018-06-13T12:21:56.732Z,2.10
2018-06-13T12:24:25.625Z,1.57
2018-06-13T12:26:58.832Z,1.83
2018-06-13T12:29:27.727Z,1.90
2018-06-13T12:31:56.575Z,2.00
2018-06-13T12:34:25.410Z,2.10
2018-06-13T12:36:54.323Z,1.70
2018-06-13T12:39:23.181Z,1.90
2018-06-13T12:41:51.956Z,2.30
2018-06-13T12:44:20.737Z,1.83
2018-06-13T12:46:49.527Z,1.87
2018-06-13T12:49:18.462Z,1.73
2018-06-13T12:51:47.446Z,1.73
2018-06-13T12:54:18.406Z,2.77
2018-06-13T12:56:53.624Z,1.83
2018-06-13T12:59:22.357Z,1.33
2018-06-13T13:01:51.255Z,1.53
2018-06-13T13:04:20.071Z,1.87
2018-06-13T13:06:48.830Z,1.77
2018-06-13T13:09:18.643Z,2.03
2018-06-13T13:11:48.440Z,2.00
2018-06-13T13:14:18.072Z,1.83
2018-06-13T13:16:48.882Z,1.37
2018-06-13T13:19:17.729Z,2.30
2018-06-13T13:21:46.657Z,1.60
2018-06-13T13:24:19.355Z,1.30
2018-06-13T13:26:48.129Z,1.70
2018-06-13T13:29:18.477Z,1.60
2018-06-13T13:31:47.430Z,2.17
2018-06-13T13:34:16.484Z,1.70
2018-06-13T13:36:45.557Z,1.60
2018-06-13T13:39:14.482Z,1.90
2018-06-13T13:41:43.253Z,2.30
2018-06-13T13:44:12.252Z,1.80
2018-06-13T13:46:41.100Z,1.57
2018-06-13T13:49:12.007Z,1.67
2018-06-13T13:51:40.742Z,1.37
2018-06-13T13:54:13.156Z,1.70
2018-06-13T13:56:42.013Z,1.30
2018-06-13T13:59:14.596Z,1.20
2018-06-13T14:01:43.490Z,1.63
2018-06-13T14:04:12.295Z,1.30
2018-06-13T14:06:41.065Z,1.00
2018-06-13T14:09:11.284Z,1.30
2018-06-13T14:11:40.026Z,1.80
2018-06-13T14:14:08.814Z,1.80
2018-06-13T14:16:41.652Z,1.47
2018-06-13T14:19:10.524Z,1.37
2018-06-13T14:21:39.589Z,1.30
2018-06-13T14:24:18.115Z,1.60
2018-06-13T14:26:47.217Z,1.30
2018-06-13T14:29:17.217Z,1.50
2018-06-13T14:31:45.925Z,1.20
2018-06-13T14:34:15.081Z,1.97
2018-06-13T14:36:44.019Z,1.23
2018-06-13T14:39:12.877Z,1.10
2018-06-13T14:41:41.703Z,1.20
2018-06-13T14:44:10.498Z,1.20
2018-06-13T14:46:39.335Z,1.00
2018-06-13T14:49:10.477Z,1.00
2018-06-13T14:51:41.713Z,1.30
2018-06-13T14:54:14.756Z,0.90
2018-06-13T14:56:47.178Z,1.40
2018-06-13T14:59:16.039Z,1.60
2018-06-13T15:01:44.816Z,1.20
2018-06-13T15:04:14.539Z,2.00
2018-06-13T15:06:48.438Z,1.50
2018-06-13T15:09:17.271Z,2.23
2018-06-13T15:11:47.333Z,1.70
2018-06-13T15:14:16.488Z,1.80
2018-06-13T15:16:45.292Z,1.77
2018-06-13T15:19:14.068Z,1.53
2018-06-13T15:21:44.036Z,2.00
2018-06-13T15:24:12.845Z,2.10
2018-06-13T15:26:41.634Z,1.90
2018-06-13T15:29:17.563Z,2.30
2018-06-13T15:31:46.363Z,1.70
2018-06-13T15:34:15.264Z,1.80
2018-06-13T15:36:46.161Z,1.50
2018-06-13T15:39:15.898Z,1.80
2018-06-13T15:41:45.244Z,1.53
2018-06-13T15:44:14.195Z,2.20
2018-06-13T15:46:43.120Z,1.77
2018-06-13T15:49:13.244Z,1.77
2018-06-13T15:51:42.168Z,2.93
2018-06-13T15:54:11.933Z,2.27
2018-06-13T15:56:40.693Z,1.37
2018-06-13T15:59:11.680Z,1.70
2018-06-13T16:01:40.503Z,1.50
2018-06-13T16:04:10.135Z,1.60
2018-06-13T16:06:41.085Z,1.80
2018-06-13T16:09:11.216Z,2.07
2018-06-13T16:11:40.101Z,1.80
2018-06-13T16:14:09.220Z,1.30
2018-06-13T16:16:37.980Z,1.83
2018-06-13T16:19:06.789Z,1.07
2018-06-13T16:21:36.747Z,1.30
2018-06-13T16:24:06.427Z,1.40
2018-06-13T16:26:35.277Z,2.90
2018-06-13T16:29:04.052Z,1.70
2018-06-13T16:31:36.430Z,1.30
2018-06-13T16:34:05.885Z,1.47
2018-06-13T16:36:35.862Z,1.67
2018-06-13T16:39:07.223Z,1.33
2018-06-13T16:41:36.066Z,1.40
2018-06-13T16:44:04.930Z,1.50
2018-06-13T16:46:33.763Z,1.47
2018-06-13T16:49:02.729Z,1.60
2018-06-13T16:51:42.923Z,1.60
2018-06-13T16:54:13.690Z,1.73
2018-06-13T16:56:43.935Z,2.43
2018-06-13T16:59:13.353Z,2.17
2018-06-13T17:01:46.421Z,1.50
2018-06-13T17:04:15.506Z,1.63
2018-06-13T17:06:44.636Z,2.00
2018-06-13T17:09:13.475Z,1.80
2018-06-13T17:11:42.403Z,2.20
2018-06-13T17:14:11.452Z,3.00
2018-06-13T17:16:40.255Z,1.70
2018-06-13T17:19:09.873Z,1.80
2018-06-13T17:21:38.737Z,1.57
2018-06-13T17:24:07.465Z,1.50
2018-06-13T17:26:43.910Z,1.33
2018-06-13T17:29:13.783Z,2.00
2018-06-13T17:31:46.361Z,1.50
2018-06-13T17:34:15.505Z,1.93
2018-06-13T17:36:44.235Z,1.77
2018-06-13T17:39:13.245Z,1.83
2018-06-13T17:41:44.286Z,2.47
2018-06-13T17:44:13.005Z,2.00
2018-06-13T17:46:41.842Z,1.40
2018-06-13T17:49:10.621Z,1.80
2018-06-13T17:51:39.681Z,1.60
2018-06-13T17:54:09.701Z,1.70
2018-06-13T17:56:51.348Z,1.77
2018-06-13T17:59:21.168Z,2.03
2018-06-13T18:01:49.981Z,3.00
2018-06-13T18:04:24.837Z,2.07
2018-06-13T18:06:55.349Z,1.43
2018-06-13T18:09:40.469Z,1.80
2018-06-13T18:12:15.024Z,3.93
2018-06-13T18:14:45.102Z,2.20
2018-06-13T18:17:18.639Z,1.70
2018-06-13T18:19:47.456Z,1.60
2018-06-13T18:22:17.133Z,1.77
2018-06-13T18:24:46.548Z,1.47
2018-06-13T18:27:15.441Z,1.80
2018-06-13T18:29:44.167Z,2.40
2018-06-13T18:32:16.642Z,1.33
2018-06-13T18:34:45.439Z,2.67
2018-06-13T18:37:15.290Z,2.40
2018-06-13T18:39:47.350Z,1.87
2018-06-13T18:42:16.199Z,2.27
2018-06-13T18:44:46.007Z,2.20
2018-06-13T18:47:17.174Z,2.87
2018-06-13T18:49:45.979Z,2.10
2018-06-13T18:52:15.820Z,1.93
2018-06-13T18:54:46.640Z,2.40
2018-06-13T18:57:15.389Z,2.43
2018-06-13T18:59:49.347Z,3.10
2018-06-13T19:02:23.678Z,2.90
2018-06-13T19:04:53.441Z,1.93
2018-06-13T19:07:23.273Z,2.60
2018-06-13T19:09:52.090Z,2.00
2018-06-13T19:12:21.790Z,2.13
2018-06-13T19:14:51.771Z,2.23
2018-06-13T19:17:28.080Z,2.60
2018-06-13T19:19:58.894Z,1.80
2018-06-13T19:22:27.644Z,2.23
2018-06-13T19:24:57.032Z,1.90
2018-06-13T19:27:26.064Z,1.70
2018-06-13T19:29:54.905Z,2.37
2018-06-13T19:32:23.717Z,1.80
2018-06-13T19:34:52.558Z,2.50
2018-06-13T19:37:21.913Z,2.70
2018-06-13T19:39:56.670Z,2.60
2018-06-13T19:42:25.445Z,2.20
2018-06-13T19:44:54.243Z,1.90
2018-06-13T19:47:28.544Z,2.00
2018-06-13T19:49:57.373Z,2.20
2018-06-13T19:52:46.683Z,2.00
2018-06-13T19:55:20.723Z,2.10
2018-06-13T19:57:49.744Z,2.77
2018-06-13T20:00:20.103Z,2.10
2018-06-13T20:02:54.514Z,2.23
2018-06-13T20:05:28.780Z,2.80
2018-06-13T20:07:57.574Z,2.43
2018-06-13T20:10:29.788Z,2.17
2018-06-13T20:13:03.903Z,2.20
2018-06-13T20:15:38.026Z,2.47
2018-06-13T20:18:12.239Z,2.33
2018-06-13T20:20:42.981Z,1.97
2018-06-13T20:23:11.833Z,1.63
2018-06-13T20:25:46.074Z,1.83
2018-06-13T20:28:20.084Z,2.00
2018-06-13T20:30:57.962Z,1.97
2018-06-13T20:33:30.274Z,2.10
2018-06-13T20:35:59.080Z,1.80
2018-06-13T20:38:28.243Z,2.10
2018-06-13T20:40:57.360Z,2.10
2018-06-13T20:43:31.895Z,2.23
2018-06-13T20:46:00.714Z,1.63
2018-06-13T20:48:30.149Z,1.47
2018-06-13T20:51:16.705Z,2.40
2018-06-13T20:53:45.547Z,1.67
2018-06-13T20:56:16.687Z,1.73
2018-06-13T20:58:45.593Z,1.97
2018-06-13T21:01:14.429Z,1.40
2018-06-13T21:03:44.814Z,1.60
2018-06-13T21:06:13.691Z,2.10
2018-06-13T21:08:42.445Z,2.43
2018-06-13T21:11:11.370Z,1.40
2018-06-13T21:13:40.115Z,1.80
2018-06-13T21:16:08.921Z,1.90
2018-06-13T21:18:38.021Z,1.43
2018-06-13T21:21:08.764Z,1.30
2018-06-13T21:23:37.697Z,1.30
2018-06-13T21:26:06.459Z,1.63
2018-06-13T21:28:35.860Z,1.70
2018-06-13T21:31:05.529Z,1.77
2018-06-13T21:33:35.378Z,1.50
2018-06-13T21:36:05.469Z,2.20
2018-06-13T21:38:38.606Z,1.90
2018-06-13T21:41:11.410Z,2.47
2018-06-13T21:43:40.247Z,1.60
2018-06-13T21:46:10.012Z,1.60
2018-06-13T21:48:39.828Z,1.40
2018-06-13T21:51:10.579Z,1.67
2018-06-13T21:53:39.812Z,1.40
2018-06-13T21:56:08.601Z,1.60
2018-06-13T21:58:37.376Z,2.00
2018-06-13T22:01:09.544Z,1.50
2018-06-13T22:03:38.451Z,1.83
2018-06-13T22:06:08.234Z,2.00
2018-06-13T22:08:37.002Z,1.63
2018-06-13T22:11:13.433Z,1.70
2018-06-13T22:13:43.190Z,1.90
2018-06-13T22:16:12.032Z,2.43
2018-06-13T22:18:50.476Z,2.43
2018-06-13T22:21:19.354Z,1.70
2018-06-13T22:23:48.181Z,2.30
2018-06-13T22:26:17.437Z,1.60
2018-06-13T22:28:47.167Z,1.60
2018-06-13T22:31:15.940Z,1.70
2018-06-13T22:33:44.785Z,1.63
2018-06-13T22:36:17.965Z,1.67
2018-06-13T22:38:46.785Z,1.90
2018-06-13T22:41:15.557Z,1.97
2018-06-13T22:43:48.961Z,2.07
2018-06-13T22:46:17.796Z,2.20
2018-06-13T22:48:46.659Z,2.00
2018-06-13T22:51:15.570Z,1.70
2018-06-13T22:53:44.441Z,2.33
2018-06-13T22:56:14.989Z,2.57
2018-06-13T22:58:44.635Z,2.23
2018-06-13T23:01:19.272Z,2.20
2018-06-13T23:03:49.014Z,2.30
2018-06-13T23:06:17.806Z,2.23
2018-06-13T23:08:46.638Z,2.10
2018-06-13T23:11:15.415Z,2.40
2018-06-13T23:13:44.210Z,2.20
2018-06-13T23:16:13.008Z,2.00
2018-06-13T23:18:41.804Z,2.53
2018-06-13T23:21:10.529Z,2.07
2018-06-13T23:26:40.615Z,2.27
2018-06-13T23:29:13.338Z,1.93
2018-06-13T23:31:42.671Z,2.40
2018-06-13T23:34:18.622Z,2.93
2018-06-13T23:36:47.344Z,2.40
2018-06-13T23:39:16.167Z,2.30
2018-06-13T23:41:44.880Z,2.20
2018-06-13T23:44:13.684Z,2.10
2018-06-13T23:46:42.391Z,2.77
2018-06-13T23:49:11.146Z,2.40
2018-06-13T23:51:39.870Z,2.50
2018-06-13T23:54:08.619Z,2.53
2018-06-13T23:56:37.452Z,2.70
2018-06-13T23:59:17.973Z,2.87
